Renton, WA (98059)

9:23 PM PDT on September 03, 2015 (GMT -0700)
Stonegate | | Change Station
CLOSE
Current Station
Personal Weather Station
Location: Renton, WA
Elevation: 374 ft
Nearby Weather Stations

Elev 374 ft 47.51 °N, 122.15 °W | Updated 45 seconds ago

Overcast
Overcast
57.0 °F
Feels Like 57.0 °F
N
0.0
Wind Variable Wind from North
Gusts 0.0 mph

Today
High -- | Low -- °F
--% Chance of Precip.
Yesterday
High -- | Low -- °F
Precip. -- in
6:29 AM 7:45 PM
Waning Gibbous, 63% visible
Pressure 30.01 in
Visibility 10.0 miles
Clouds Overcast 6500 ft
Dew Point 47 °F
Humidity 70%
Rainfall 0.00 in
Snow Depth Not available.
UV 0 out of 12
Pollen 1.50 out of 12
Air Quality Not available.
Flu Activity Not available.
METAR KRNT 040353Z AUTO 28006KT 10SM OVC065 16/08 A2999 RMK AO2 SLP162 T01610078
Pressure 30.01 in
Visibility 10.0 miles
Clouds Overcast 6500 ft
Dew Point 47 °F
Humidity 70%
Rainfall 0.00 in
Snow Depth Not available.
UV 0 out of 12
Pollen 1.50 out of 12
Air Quality Not available.
Flu Activity Not available.
METAR KRNT 040353Z AUTO 28006KT 10SM OVC065 16/08 A2999 RMK AO2 SLP162 T01610078

10-Day Weather Forecast

×

Almanac

Astronomy

Sep. 03, 2015 Rise Set
Actual Time
Civil Twilight
Nautical Twilight
Astronomical Twilight
Moon
Length of Visible Light
Length of Day
Tomorrow will be .
, % of the Moon is Illuminated

Today's Extremes

State Highs State Lows

Community

WunderPhotos

Upload Photos

1,852,128 photos uploaded!

WunderBlogs® & News

Nearby

Air Quality

  Air Quality AQ Index Pollutant
Not available.

Snow Depth

Station Depth Elevation

Earthquake Activity

City Distance Mag. Time & Date
Minimum magnitude displayed is 2.5.

Coastal Water Temperatures

Place Temperature

Stations

Nearby Weather Stations

Station Location Temp. Windchill Dew Point Humidity Wind Precip. Elev Updated Type